Time;durP1;ratioP1;P1;durP2;ratioP2;P2;SDS_P1;SDS_P2;PMS_P1;PMS_P2;Temp;Humidity;BMP_temperature;BMP_pressure;BME280_temperature;BME280_humidity;BME280_pressure;Samples;Min_cycle;Max_cycle;Signal;HPM_P1;HPM_P2
2021/03/23 03:47:17;;;;;;;14.00;7.22;;;1.80;99.90;;;;;;5112568;23;20059;-88
2021/03/23 03:49:43;;;;;;;16.73;8.27;;;1.80;99.90;;;;;;5002941;28;20039;-87
2021/03/23 03:52:09;;;;;;;17.90;8.18;;;1.70;99.90;;;;;;5002893;28;20047;-87
2021/03/23 03:54:35;;;;;;;16.38;7.65;;;1.70;99.90;;;;;;4982926;28;20046;-87
2021/03/23 03:57:00;;;;;;;14.23;7.82;;;1.60;99.90;;;;;;5001888;28;20399;-87
2021/03/23 03:59:26;;;;;;;13.20;6.97;;;1.60;99.90;;;;;;5002486;28;20046;-87
2021/03/23 04:01:52;;;;;;;13.48;6.85;;;1.50;99.90;;;;;;5002676;28;20043;-87
2021/03/23 04:04:17;;;;;;;15.80;7.88;;;1.50;99.90;;;;;;5001249;28;20127;-87
2021/03/23 04:06:43;;;;;;;18.50;7.75;;;1.50;99.90;;;;;;4984318;28;20046;-88
2021/03/23 04:09:09;;;;;;;12.18;6.85;;;1.50;99.90;;;;;;4985005;28;20043;-87
2021/03/23 04:11:34;;;;;;;15.02;7.28;;;1.50;99.90;;;;;;5003216;28;20118;-87
2021/03/23 04:14:01;;;;;;;9.73;6.53;;;1.40;99.90;;;;;;4984097;28;20051;-87
2021/03/23 04:16:26;;;;;;;10.27;6.20;;;1.40;99.90;;;;;;4984084;28;20125;-87
2021/03/23 04:18:52;;;;;;;10.48;5.85;;;1.40;99.90;;;;;;5003452;28;20122;-87
2021/03/23 04:21:18;;;;;;;14.48;6.38;;;1.40;99.90;;;;;;5005352;28;20219;-87
2021/03/23 04:23:43;;;;;;;11.77;5.85;;;1.30;99.90;;;;;;5003014;28;20043;-86
2021/03/23 04:26:11;;;;;;;14.57;7.10;;;1.40;99.90;;;;;;4988342;28;20047;-86
2021/03/23 04:28:41;;;;;;;12.82;6.55;;;1.40;99.90;;;;;;4989884;28;20042;-87
2021/03/23 04:31:08;;;;;;;15.68;7.38;;;1.30;99.90;;;;;;5003198;28;20661;-88
2021/03/23 04:33:33;;;;;;;11.82;5.63;;;1.30;99.90;;;;;;4993384;28;20047;-89
2021/03/23 04:36:08;;;;;;;10.85;6.30;;;1.30;99.90;;;;;;4999961;28;20063;-90
2021/03/23 04:38:36;;;;;;;12.98;6.63;;;1.30;99.90;;;;;;5008671;28;20491;-89
2021/03/23 04:41:12;;;;;;;11.85;6.82;;;1.20;99.90;;;;;;5007308;28;20042;-88
2021/03/23 04:43:40;;;;;;;9.95;5.93;;;1.30;99.90;;;;;;5025951;28;20031;-89
2021/03/23 04:46:06;;;;;;;10.75;6.18;;;1.30;99.90;;;;;;4990573;28;20035;-90
2021/03/23 04:48:32;;;;;;;8.93;5.60;;;1.30;99.90;;;;;;5008167;28;20019;-90
2021/03/23 04:50:59;;;;;;;11.07;6.28;;;1.30;99.90;;;;;;5002292;28;20843;-89
2021/03/23 04:53:31;;;;;;;11.25;6.38;;;1.30;99.90;;;;;;4990637;28;20055;-87
2021/03/23 04:55:58;;;;;;;10.20;6.40;;;1.30;99.90;;;;;;5007175;28;20046;-85
2021/03/23 04:58:26;;;;;;;12.85;5.75;;;1.30;99.90;;;;;;5005231;28;20047;-85
2021/03/23 05:00:52;;;;;;;12.82;6.43;;;1.20;99.90;;;;;;5008407;28;20042;-85
2021/03/23 05:03:28;;;;;;;9.52;5.85;;;1.20;99.90;;;;;;4991445;28;20182;-87
2021/03/23 05:05:55;;;;;;;11.80;6.40;;;1.20;99.90;;;;;;4986733;28;20094;-87
2021/03/23 05:08:22;;;;;;;10.60;6.53;;;1.20;99.90;;;;;;5002777;28;20517;-85
2021/03/23 05:10:48;;;;;;;10.60;6.10;;;1.10;99.90;;;;;;5006478;28;20038;-86
2021/03/23 05:13:14;;;;;;;11.82;7.20;;;1.10;99.90;;;;;;4992472;28;20071;-85
2021/03/23 05:15:40;;;;;;;17.33;7.05;;;1.00;99.90;;;;;;5006328;28;20228;-86
2021/03/23 05:18:05;;;;;;;11.70;7.25;;;1.00;99.90;;;;;;4988568;28;20035;-86
2021/03/23 05:20:31;;;;;;;13.95;7.18;;;1.10;99.90;;;;;;4985182;28;20044;-86
2021/03/23 05:22:57;;;;;;;14.30;7.60;;;0.90;99.90;;;;;;5001466;28;20450;-86
2021/03/23 05:25:23;;;;;;;11.65;7.15;;;0.80;99.90;;;;;;5007163;28;20042;-85
2021/03/23 05:27:48;;;;;;;11.13;6.38;;;0.80;99.90;;;;;;4993566;28;20158;-86
2021/03/23 05:30:15;;;;;;;12.43;6.60;;;0.70;99.90;;;;;;4999041;28;20091;-86
2021/03/23 05:32:41;;;;;;;15.90;7.18;;;0.70;99.90;;;;;;5002332;28;20542;-86
2021/03/23 05:35:08;;;;;;;12.90;7.03;;;0.60;99.90;;;;;;5006323;28;20134;-86
2021/03/23 05:37:34;;;;;;;11.73;6.70;;;0.70;99.90;;;;;;5006534;28;20626;-85
2021/03/23 05:40:00;;;;;;;9.35;6.53;;;0.70;99.90;;;;;;4997765;28;20074;-85
2021/03/23 05:42:40;;;;;;;11.43;6.80;;;0.70;99.90;;;;;;5000502;28;20050;-85
2021/03/23 05:45:09;;;;;;;10.30;5.68;;;0.80;99.90;;;;;;5004231;28;20047;-87
2021/03/23 05:47:38;;;;;;;18.75;6.93;;;0.80;99.90;;;;;;4991302;28;20106;-86
2021/03/23 05:50:31;;;;;;;13.38;6.80;;;0.90;99.90;;;;;;5004156;28;20497;-87
2021/03/23 05:53:22;;;;;;;15.85;6.43;;;1.00;99.90;;;;;;4994467;28;20110;-85
2021/03/23 05:55:51;;;;;;;10.40;6.50;;;1.10;99.90;;;;;;5001094;28;20166;-86
2021/03/23 05:58:26;;;;;;;11.40;5.43;;;1.20;99.90;;;;;;5003177;28;20070;-88
2021/03/23 06:01:05;;;;;;;11.68;6.88;;;1.30;99.90;;;;;;5002544;28;20049;-87
2021/03/23 06:03:44;;;;;;;13.00;6.75;;;2.40;99.90;;;;;;5005716;28;20122;-88
2021/03/23 06:06:39;;;;;;;10.57;5.97;;;3.50;99.90;;;;;;5004517;28;20518;-87
2021/03/23 06:09:05;;;;;;;12.45;6.05;;;3.50;99.90;;;;;;5003138;28;20066;-87
2021/03/23 06:11:42;;;;;;;11.57;6.03;;;4.50;99.90;;;;;;4975400;28;20051;-87
2021/03/23 06:14:22;;;;;;;12.88;6.82;;;4.80;99.00;;;;;;4984993;28;20046;-86
2021/03/23 06:17:03;;;;;;;11.07;6.28;;;5.50;97.50;;;;;;5008582;28;20112;-86
2021/03/23 06:19:41;;;;;;;12.25;6.28;;;6.00;95.10;;;;;;5002377;28;20043;-89
2021/03/23 06:22:27;;;;;;;8.60;5.63;;;6.70;93.20;;;;;;5004773;28;20076;-88
2021/03/23 06:24:56;;;;;;;11.07;6.72;;;6.80;91.20;;;;;;5005121;28;20046;-87
2021/03/23 06:27:39;;;;;;;12.88;6.47;;;7.10;90.40;;;;;;5006771;28;20847;-90
2021/03/23 06:30:44;;;;;;;12.15;7.00;;;7.40;87.70;;;;;;4998685;28;20049;-88
2021/03/23 06:33:13;;;;;;;11.32;5.13;;;8.20;84.50;;;;;;4988106;28;20126;-87
2021/03/23 06:35:46;;;;;;;10.52;5.57;;;8.50;81.00;;;;;;4988715;28;20038;-88
2021/03/23 06:38:34;;;;;;;12.75;6.43;;;8.40;80.00;;;;;;5007532;28;20053;-86
2021/03/23 06:41:14;;;;;;;10.80;5.82;;;9.00;76.50;;;;;;4999976;28;20035;-89
2021/03/23 06:43:44;;;;;;;11.05;7.22;;;9.40;75.00;;;;;;5001465;28;20038;-86
2021/03/23 06:46:40;;;;;;;10.45;6.00;;;9.80;71.80;;;;;;5001953;28;20190;-87
2021/03/23 06:49:15;;;;;;;12.95;6.47;;;10.00;71.30;;;;;;4986223;28;20813;-86
2021/03/23 06:51:57;;;;;;;13.27;6.22;;;10.30;66.50;;;;;;5006713;28;20043;-86
2021/03/23 06:54:31;;;;;;;8.90;5.30;;;10.60;63.90;;;;;;5007260;28;20067;-86
2021/03/23 06:57:13;;;;;;;9.57;6.47;;;10.50;62.70;;;;;;5006068;28;20529;-86
2021/03/23 07:00:02;;;;;;;9.25;4.93;;;10.70;62.50;;;;;;5005023;28;20054;-86
2021/03/23 07:02:37;;;;;;;7.70;4.40;;;10.90;59.50;;;;;;5005551;28;20047;-86
2021/03/23 07:05:36;;;;;;;11.05;5.63;;;11.20;59.30;;;;;;5003449;28;20138;-87
2021/03/23 07:08:08;;;;;;;6.70;4.78;;;12.10;56.10;;;;;;4987606;28;20050;-86
2021/03/23 07:10:40;;;;;;;6.22;4.85;;;12.40;54.40;;;;;;5008191;28;20047;-87
2021/03/23 07:13:08;;;;;;;8.52;4.95;;;12.70;51.20;;;;;;5011891;28;20074;-86
2021/03/23 07:15:36;;;;;;;6.45;4.82;;;12.40;51.10;;;;;;5012875;28;20049;-86
2021/03/23 07:18:05;;;;;;;6.63;5.00;;;13.60;48.90;;;;;;5010117;28;20753;-87
2021/03/23 07:20:33;;;;;;;6.95;4.22;;;14.00;47.30;;;;;;5010647;28;20046;-87
2021/03/23 07:23:02;;;;;;;9.40;5.22;;;14.50;44.90;;;;;;5006238;28;20057;-87
2021/03/23 07:25:40;;;;;;;6.93;5.07;;;15.10;45.10;;;;;;4983794;28;20047;-87
2021/03/23 07:28:33;;;;;;;8.50;5.40;;;15.50;43.90;;;;;;5003508;28;20065;-87
2021/03/23 07:31:14;;;;;;;9.20;5.25;;;15.80;42.90;;;;;;5005860;28;20054;-86
2021/03/23 07:34:17;;;;;;;7.40;5.45;;;15.70;42.10;;;;;;5001363;28;20118;-87
2021/03/23 07:36:47;;;;;;;7.00;5.43;;;15.60;41.70;;;;;;4989966;28;20047;-87
2021/03/23 07:39:25;;;;;;;7.90;5.28;;;16.10;41.70;;;;;;5004566;28;20050;-86
2021/03/23 07:41:58;;;;;;;7.43;5.25;;;17.20;39.80;;;;;;4998786;28;20042;-87
2021/03/23 07:44:44;;;;;;;8.73;5.05;;;18.10;38.60;;;;;;5004598;28;20049;-87
2021/03/23 07:47:31;;;;;;;11.82;5.18;;;19.20;37.40;;;;;;4994298;28;20510;-86
2021/03/23 07:50:04;;;;;;;6.82;5.00;;;17.70;35.90;;;;;;4984506;28;20046;-87
2021/03/23 07:52:52;;;;;;;6.22;5.63;;;17.10;37.10;;;;;;5004334;28;20047;-87
2021/03/23 07:55:24;;;;;;;7.95;5.20;;;18.00;36.50;;;;;;5004586;28;20178;-87
2021/03/23 07:58:17;;;;;;;9.70;5.38;;;18.20;35.60;;;;;;5000484;28;20053;-87
2021/03/23 08:01:02;;;;;;;7.72;5.15;;;16.90;37.00;;;;;;4994207;28;20057;-87
2021/03/23 08:03:46;;;;;;;7.22;5.15;;;17.80;37.20;;;;;;5004595;28;20122;-87
2021/03/23 08:06:23;;;;;;;7.05;4.95;;;17.30;36.60;;;;;;4999016;28;21025;-87
2021/03/23 08:09:10;;;;;;;7.10;5.00;;;16.90;37.40;;;;;;5004416;28;20034;-87
2021/03/23 08:11:44;;;;;;;6.45;5.20;;;17.10;38.20;;;;;;4986683;28;20039;-87
2021/03/23 08:14:41;;;;;;;9.63;5.32;;;18.70;37.10;;;;;;4998035;28;20469;-87
2021/03/23 08:17:12;;;;;;;7.63;4.95;;;19.10;35.10;;;;;;5003791;28;20049;-87
2021/03/23 08:20:03;;;;;;;9.88;5.22;;;17.80;36.80;;;;;;5004413;28;20499;-87
2021/03/23 08:22:47;;;;;;;6.47;5.63;;;18.30;35.30;;;;;;4988594;28;20055;-87
2021/03/23 08:25:28;;;;;;;11.90;5.85;;;18.60;36.30;;;;;;5004173;28;20098;-87
2021/03/23 08:28:30;;;;;;;7.60;4.93;;;18.90;35.60;;;;;;5003873;28;20050;-87
2021/03/23 08:31:25;;;;;;;5.97;5.13;;;19.00;34.90;;;;;;4962258;28;20051;-87
2021/03/23 08:34:28;;;;;;;6.68;5.05;;;18.50;35.10;;;;;;4973245;28;20059;-87
2021/03/23 08:37:05;;;;;;;9.73;5.65;;;18.30;35.10;;;;;;4996548;28;20055;-87
2021/03/23 08:39:52;;;;;;;7.53;5.32;;;19.10;35.30;;;;;;4997715;28;20046;-87
2021/03/23 08:42:24;;;;;;;7.38;4.82;;;19.80;33.50;;;;;;5001713;28;20077;-87
2021/03/23 08:44:50;;;;;;;6.70;5.10;;;20.90;32.40;;;;;;5004368;28;20039;-87
2021/03/23 08:47:31;;;;;;;6.63;5.00;;;19.90;32.20;;;;;;5002340;28;20054;-87
2021/03/23 08:50:06;;;;;;;6.22;5.28;;;19.30;33.30;;;;;;5002179;28;20047;-87
2021/03/23 08:52:31;;;;;;;7.88;5.63;;;19.40;33.90;;;;;;5004844;28;20605;-87
2021/03/23 08:54:58;;;;;;;7.18;5.75;;;20.40;33.30;;;;;;5005153;28;20073;-88
2021/03/23 08:57:24;;;;;;;8.27;5.15;;;20.20;33.20;;;;;;5000805;28;20045;-87
2021/03/23 08:59:54;;;;;;;6.78;5.25;;;20.40;33.00;;;;;;4993518;28;20049;-88
2021/03/23 09:02:19;;;;;;;12.52;6.18;;;21.70;32.50;;;;;;5004708;28;20038;-87
2021/03/23 09:04:56;;;;;;;6.95;6.20;;;21.90;31.30;;;;;;5011161;28;20499;-88
2021/03/23 09:07:28;;;;;;;7.00;5.72;;;22.90;31.30;;;;;;5003398;28;20092;-88
2021/03/23 09:09:54;;;;;;;8.77;5.55;;;24.40;29.70;;;;;;5008713;28;20047;-88
2021/03/23 09:12:43;;;;;;;7.43;5.07;;;24.10;29.20;;;;;;4984579;28;20047;-88
2021/03/23 09:15:16;;;;;;;6.80;5.75;;;25.40;27.90;;;;;;4988074;28;20063;-88
2021/03/23 09:18:05;;;;;;;10.48;6.28;;;25.00;27.60;;;;;;5003533;28;20047;-88
2021/03/23 09:20:50;;;;;;;7.68;5.88;;;25.10;27.60;;;;;;5004993;28;20039;-88
2021/03/23 09:23:23;;;;;;;7.78;5.10;;;25.10;27.80;;;;;;4999114;28;20178;-89
2021/03/23 09:25:56;;;;;;;7.47;4.90;;;25.10;27.70;;;;;;5003198;28;20047;-89
2021/03/23 09:28:37;;;;;;;7.15;5.40;;;25.60;26.60;;;;;;5002691;28;20050;-88
2021/03/23 09:31:16;;;;;;;6.13;4.95;;;26.20;26.30;;;;;;5003271;28;20034;-88
2021/03/23 09:33:52;;;;;;;8.82;5.13;;;26.00;26.80;;;;;;4997625;28;20035;-87
2021/03/23 09:36:31;;;;;;;8.38;4.90;;;25.40;27.50;;;;;;5002953;28;20506;-87
2021/03/23 09:39:16;;;;;;;5.00;4.53;;;26.40;26.30;;;;;;4989417;28;20126;-87
2021/03/23 09:41:47;;;;;;;4.93;4.47;;;26.90;25.80;;;;;;5003465;28;20503;-87
2021/03/23 09:44:20;;;;;;;5.93;5.32;;;26.70;25.70;;;;;;5001548;28;20047;-87
2021/03/23 09:46:56;;;;;;;5.72;4.68;;;28.40;24.10;;;;;;5002008;28;20054;-87
2021/03/23 09:49:44;;;;;;;6.55;5.25;;;29.10;24.50;;;;;;5002671;28;20047;-88
2021/03/23 09:52:19;;;;;;;7.20;5.63;;;30.00;23.80;;;;;;4995898;28;20042;-87
2021/03/23 09:55:00;;;;;;;7.05;4.90;;;30.00;24.20;;;;;;4998160;28;20106;-87
2021/03/23 09:57:31;;;;;;;5.40;4.82;;;30.50;23.60;;;;;;5005682;28;20035;-88
2021/03/23 10:00:00;;;;;;;5.35;4.93;;;30.10;24.40;;;;;;5007258;28;20154;-88
2021/03/23 10:02:32;;;;;;;13.65;6.28;;;32.30;23.90;;;;;;5005861;28;20042;-87
2021/03/23 10:05:28;;;;;;;6.80;5.43;;;33.90;23.60;;;;;;5000641;28;20051;-88
2021/03/23 10:08:13;;;;;;;5.57;5.07;;;34.90;22.60;;;;;;5002474;28;20125;-88
2021/03/23 10:10:39;;;;;;;6.93;5.38;;;34.20;21.90;;;;;;5006169;28;20046;-88
2021/03/23 10:13:28;;;;;;;7.15;6.10;;;32.60;23.00;;;;;;4989781;28;20046;-88
2021/03/23 10:15:54;;;;;;;6.40;5.82;;;33.00;22.90;;;;;;5001663;28;20053;-88
2021/03/23 10:18:28;;;;;;;7.35;5.53;;;32.50;22.70;;;;;;5006496;28;20925;-88
2021/03/23 10:21:09;;;;;;;7.20;5.35;;;32.60;23.10;;;;;;5006899;28;20075;-88
2021/03/23 10:23:43;;;;;;;4.75;4.38;;;33.70;22.80;;;;;;4998325;28;20451;-88
2021/03/23 10:26:09;;;;;;;9.48;5.22;;;34.80;22.30;;;;;;5004327;28;20569;-88
2021/03/23 10:28:49;;;;;;;7.78;5.15;;;35.80;22.60;;;;;;4988696;28;20047;-88
2021/03/23 10:31:29;;;;;;;6.00;5.40;;;37.00;21.90;;;;;;5000282;28;20043;-88
2021/03/23 10:34:14;;;;;;;5.22;4.82;;;37.50;22.00;;;;;;5004763;28;20039;-88
2021/03/23 10:36:42;;;;;;;5.40;5.00;;;37.90;21.20;;;;;;5005438;28;20051;-88
2021/03/23 10:39:43;;;;;;;6.60;4.85;;;37.60;21.80;;;;;;5006080;28;20050;-88
2021/03/23 10:42:15;;;;;;;6.57;5.95;;;38.00;20.40;;;;;;5003629;28;20138;-88
2021/03/23 10:44:41;;;;;;;6.55;5.32;;;37.30;20.60;;;;;;4981282;28;20055;-88
2021/03/23 10:47:13;;;;;;;7.15;5.68;;;37.60;21.40;;;;;;5005290;28;20050;-88
2021/03/23 10:49:39;;;;;;;5.97;5.43;;;37.40;21.30;;;;;;5006131;28;20125;-88
2021/03/23 10:52:17;;;;;;;5.47;4.97;;;37.40;21.40;;;;;;5005351;28;20042;-88
2021/03/23 10:54:43;;;;;;;5.53;4.85;;;37.90;20.70;;;;;;5001837;28;20089;-88
2021/03/23 10:57:31;;;;;;;5.05;4.63;;;38.00;21.00;;;;;;5004953;28;20050;-88
2021/03/23 11:00:26;;;;;;;5.45;4.95;;;38.70;20.20;;;;;;5005804;28;20050;-88
2021/03/23 11:02:52;;;;;;;5.55;5.15;;;39.00;19.40;;;;;;4996990;28;20047;-88
2021/03/23 11:05:21;;;;;;;6.43;5.80;;;38.70;20.30;;;;;;5010128;28;20041;-88
2021/03/23 11:08:02;;;;;;;6.75;6.15;;;38.70;20.80;;;;;;5004220;28;20043;-88
2021/03/23 11:10:32;;;;;;;5.97;5.45;;;38.70;20.70;;;;;;5010166;28;157973;-88
2021/03/23 11:12:59;;;;;;;6.45;5.90;;;38.90;21.00;;;;;;4987209;28;20039;-88
2021/03/23 11:15:26;;;;;;;7.13;5.75;;;38.50;20.90;;;;;;5005827;28;20042;-88
2021/03/23 11:17:53;;;;;;;6.25;5.32;;;38.60;20.70;;;;;;4999576;28;20118;-89
2021/03/23 11:20:22;;;;;;;6.50;5.82;;;38.20;20.90;;;;;;5005481;28;20541;-88
2021/03/23 11:22:49;;;;;;;6.55;5.88;;;38.20;20.70;;;;;;4999120;28;20080;-88
2021/03/23 11:25:21;;;;;;;5.78;5.32;;;38.20;20.60;;;;;;5004324;28;20065;-88
2021/03/23 11:27:48;;;;;;;6.38;5.88;;;38.20;20.00;;;;;;5004472;28;20117;-88
2021/03/23 11:30:15;;;;;;;6.28;5.70;;;37.80;20.40;;;;;;5005069;28;20049;-88
2021/03/23 11:32:40;;;;;;;5.63;5.05;;;38.40;19.90;;;;;;5003477;28;20031;-89
2021/03/23 11:35:08;;;;;;;6.00;5.50;;;38.40;20.10;;;;;;5005296;28;20043;-88
2021/03/23 11:37:35;;;;;;;5.88;5.22;;;38.40;20.20;;;;;;5003352;28;20103;-89
2021/03/23 11:40:01;;;;;;;5.97;5.20;;;38.40;20.40;;;;;;5005979;28;20095;-88
2021/03/23 11:42:41;;;;;;;5.80;5.30;;;38.30;20.40;;;;;;5004053;28;20511;-90
2021/03/23 11:45:41;;;;;;;5.72;5.22;;;38.50;20.30;;;;;;5005709;28;20043;-87
2021/03/23 11:48:11;;;;;;;6.20;5.25;;;38.50;20.00;;;;;;5003294;28;20057;-87
2021/03/23 11:50:38;;;;;;;;;;;38.40;20.20;;;;;;4988520;28;20094;-88
2021/03/23 11:53:05;;;;;;;5.50;5.00;;;38.10;19.80;;;;;;4999246;28;20425;-87
2021/03/23 11:55:40;;;;;;;6.00;5.40;;;37.60;20.30;;;;;;4997950;28;20118;-88
2021/03/23 11:58:08;;;;;;;5.57;5.00;;;37.50;20.80;;;;;;5005595;28;20043;-88
2021/03/23 12:00:34;;;;;;;5.68;4.97;;;37.70;20.50;;;;;;5004904;28;20045;-90
2021/03/23 12:03:01;;;;;;;5.60;5.10;;;37.70;20.50;;;;;;4990240;28;20901;-89
2021/03/23 12:05:28;;;;;;;5.95;5.25;;;37.80;20.60;;;;;;5011972;28;20034;-88
2021/03/23 12:08:08;;;;;;;6.00;5.50;;;37.80;20.10;;;;;;5006272;28;20042;-88
2021/03/23 12:10:56;;;;;;;5.72;5.15;;;38.10;20.50;;;;;;4993326;28;20043;-88
2021/03/23 12:13:39;;;;;;;6.10;5.53;;;38.10;19.80;;;;;;5000719;28;20043;-89
2021/03/23 12:16:30;;;;;;;7.10;5.43;;;37.80;20.40;;;;;;5001895;28;20122;-90
2021/03/23 12:19:02;;;;;;;5.65;5.15;;;36.20;19.80;;;;;;5003194;28;20141;-87
2021/03/23 12:21:28;;;;;;;6.25;5.65;;;35.50;20.20;;;;;;5006133;28;20027;-90
2021/03/23 12:23:55;;;;;;;6.00;5.50;;;33.70;20.80;;;;;;5009041;28;20058;-89
2021/03/23 12:26:22;;;;;;;6.57;5.60;;;34.80;21.00;;;;;;5006513;28;20495;-89
2021/03/23 12:28:47;;;;;;;5.72;5.30;;;35.30;21.20;;;;;;5005041;28;20050;-91
2021/03/23 12:31:14;;;;;;;5.07;4.68;;;35.60;20.50;;;;;;5019701;28;20110;-90
2021/03/23 12:33:40;;;;;;;5.65;5.15;;;35.80;20.70;;;;;;4990010;28;20053;-89
2021/03/23 12:36:07;;;;;;;5.93;5.32;;;36.30;20.60;;;;;;5006050;28;20059;-90
2021/03/23 12:38:39;;;;;;;5.70;5.25;;;36.30;20.60;;;;;;5007173;28;20461;-90
2021/03/23 12:41:05;;;;;;;6.03;5.43;;;36.40;20.50;;;;;;4994090;28;20121;-91
2021/03/23 12:43:31;;;;;;;5.68;5.20;;;36.00;20.50;;;;;;4994254;28;20217;-89
2021/03/23 12:45:57;;;;;;;6.18;5.60;;;36.10;20.90;;;;;;5010058;28;20059;-90
2021/03/23 12:48:24;;;;;;;5.80;5.30;;;33.50;21.00;;;;;;5013525;28;20039;-90
2021/03/23 12:50:52;;;;;;;5.72;5.22;;;32.30;21.40;;;;;;5011797;28;20038;-90
2021/03/23 12:53:19;;;;;;;5.57;5.03;;;33.30;21.60;;;;;;5013010;28;20426;-89
2021/03/23 12:55:54;;;;;;;5.57;5.15;;;34.30;21.30;;;;;;5016316;28;20463;-92
2021/03/23 12:58:24;;;;;;;7.65;6.32;;;34.90;21.10;;;;;;4996586;28;20043;-89
2021/03/23 13:00:51;;;;;;;6.40;5.65;;;35.10;20.50;;;;;;4995628;28;20543;-89
2021/03/23 13:03:19;;;;;;;6.53;5.82;;;35.30;20.20;;;;;;4996780;28;20057;-89
2021/03/23 13:05:45;;;;;;;5.43;4.93;;;34.10;20.50;;;;;;5009318;28;20061;-89
2021/03/23 13:08:34;;;;;;;5.22;4.82;;;33.50;20.80;;;;;;5027836;28;20034;-90
2021/03/23 13:11:25;;;;;;;5.97;5.33;;;33.30;21.30;;;;;;5023817;28;20023;-90
2021/03/23 13:14:01;;;;;;;6.57;5.93;;;33.20;20.50;;;;;;4998159;28;20069;-90
2021/03/23 13:16:29;;;;;;;6.30;5.38;;;31.40;21.50;;;;;;5015194;28;20053;-90
2021/03/23 13:18:55;;;;;;;5.88;5.32;;;31.00;21.80;;;;;;5009078;28;20126;-90
2021/03/23 13:21:25;;;;;;;5.22;4.82;;;31.30;22.30;;;;;;5005448;28;20082;-90
2021/03/23 13:23:55;;;;;;;5.70;5.20;;;31.60;22.20;;;;;;5004560;28;20411;-90
2021/03/23 13:26:22;;;;;;;;;;;32.10;22.10;;;;;;5003400;28;20507;-90
2021/03/23 13:29:07;;;;;;;5.30;4.80;;;31.60;22.30;;;;;;4973669;28;19925;-90
2021/03/23 13:31:41;;;;;;;5.75;5.15;;;31.60;22.40;;;;;;4987780;28;20031;-90
2021/03/23 13:34:15;;;;;;;7.35;6.03;;;31.80;22.40;;;;;;5005298;28;20050;-89
2021/03/23 13:36:44;;;;;;;6.43;5.22;;;31.90;21.90;;;;;;4978478;28;20047;-89
2021/03/23 13:39:24;;;;;;;5.17;4.77;;;31.80;22.40;;;;;;5003254;28;20502;-89
2021/03/23 13:41:50;;;;;;;5.23;4.83;;;31.70;22.30;;;;;;4987173;28;20346;-89
2021/03/23 13:44:28;;;;;;;5.60;5.10;;;31.60;22.40;;;;;;5002808;28;20070;-90
2021/03/23 13:46:55;;;;;;;7.25;5.80;;;31.30;22.40;;;;;;4990943;28;20105;-89
2021/03/23 13:49:20;;;;;;;5.82;5.22;;;30.90;21.70;;;;;;5004265;28;20069;-88
2021/03/23 13:51:48;;;;;;;6.32;5.65;;;29.60;22.60;;;;;;5003664;28;20043;-89
2021/03/23 13:54:14;;;;;;;4.97;4.47;;;29.10;23.20;;;;;;5002360;28;20802;-88
2021/03/23 13:56:40;;;;;;;6.18;5.38;;;28.60;23.20;;;;;;5003009;28;20043;-89
2021/03/23 13:59:06;;;;;;;5.50;5.00;;;28.20;23.30;;;;;;4992615;28;20106;-88
2021/03/23 14:01:32;;;;;;;5.50;5.00;;;28.10;23.50;;;;;;4992131;28;20055;-89
2021/03/23 14:03:58;;;;;;;5.47;4.97;;;28.00;23.70;;;;;;4999687;28;20038;-89
2021/03/23 14:06:26;;;;;;;5.95;5.38;;;28.00;23.20;;;;;;4994934;28;20173;-89
2021/03/23 14:08:53;;;;;;;6.15;5.55;;;27.90;23.80;;;;;;4993036;28;20040;-88
2021/03/23 14:11:21;;;;;;;6.50;5.30;;;27.70;24.10;;;;;;5000573;28;20047;-89
2021/03/23 14:13:47;;;;;;;6.05;5.28;;;27.20;24.20;;;;;;5000747;28;20035;-88
2021/03/23 14:16:13;;;;;;;5.82;5.32;;;27.70;24.20;;;;;;5002554;28;20510;-89
2021/03/23 14:18:39;;;;;;;5.95;5.30;;;27.80;24.10;;;;;;5004449;28;20043;-89
2021/03/23 14:21:06;;;;;;;5.82;5.32;;;28.00;23.90;;;;;;5002288;28;20079;-89
2021/03/23 14:23:43;;;;;;;5.50;4.90;;;27.50;24.70;;;;;;5003587;28;20510;-89
2021/03/23 14:26:10;;;;;;;5.55;5.05;;;27.20;23.60;;;;;;4992059;28;20039;-89
2021/03/23 14:28:42;;;;;;;5.78;5.10;;;26.20;23.90;;;;;;4967142;28;20043;-89
2021/03/23 14:31:10;;;;;;;6.18;4.82;;;25.20;24.60;;;;;;4991388;28;20048;-88
2021/03/23 14:33:37;;;;;;;6.90;4.95;;;24.40;25.60;;;;;;4993614;28;20051;-88
2021/03/23 14:36:04;;;;;;;4.90;4.40;;;24.00;25.90;;;;;;5002763;28;20047;-89
2021/03/23 14:38:36;;;;;;;4.88;4.38;;;23.90;25.70;;;;;;5000341;28;20043;-90
2021/03/23 14:41:06;;;;;;;5.00;4.22;;;23.70;26.30;;;;;;5005733;28;20094;-89
2021/03/23 14:43:32;;;;;;;4.55;4.25;;;23.70;26.20;;;;;;4995498;28;20054;-89
2021/03/23 14:45:58;;;;;;;4.80;4.30;;;23.60;25.90;;;;;;4985409;28;20114;-89
2021/03/23 14:48:26;;;;;;;4.88;4.38;;;23.70;26.00;;;;;;4987116;28;20077;-89
2021/03/23 14:50:56;;;;;;;4.78;4.38;;;23.90;25.90;;;;;;5006319;28;20110;-89
2021/03/23 14:53:45;;;;;;;5.47;4.38;;;24.20;24.80;;;;;;5004486;28;20392;-90
2021/03/23 14:56:38;;;;;;;5.00;4.30;;;24.00;25.70;;;;;;4996372;28;20050;-89
2021/03/23 14:59:06;;;;;;;5.18;4.72;;;23.60;26.60;;;;;;4998787;28;20503;-89
2021/03/23 15:01:33;;;;;;;5.00;4.50;;;23.50;26.50;;;;;;5007242;28;20562;-89
2021/03/23 15:03:59;;;;;;;6.13;4.63;;;23.30;26.70;;;;;;4988933;28;20043;-89
2021/03/23 15:06:29;;;;;;;4.47;4.15;;;23.10;26.70;;;;;;5007117;28;20054;-88
2021/03/23 15:08:57;;;;;;;6.30;4.93;;;22.90;27.30;;;;;;4995477;28;20043;-89
2021/03/23 15:11:35;;;;;;;4.88;4.47;;;22.80;27.30;;;;;;5005481;28;20101;-89
2021/03/23 15:14:03;;;;;;;4.90;4.28;;;22.80;27.00;;;;;;5004983;28;20099;-87
2021/03/23 15:16:29;;;;;;;6.10;4.38;;;22.80;27.00;;;;;;5004624;28;20058;-87
2021/03/23 15:18:55;;;;;;;4.32;3.92;;;22.70;26.60;;;;;;4989580;28;20043;-87
2021/03/23 15:21:29;;;;;;;5.30;4.20;;;22.40;26.50;;;;;;5006153;28;20045;-87
2021/03/23 15:23:55;;;;;;;6.45;4.43;;;22.10;26.80;;;;;;4997762;28;20077;-87
2021/03/23 15:26:27;;;;;;;4.70;4.30;;;21.80;27.20;;;;;;5005810;28;20075;-87
2021/03/23 15:28:55;;;;;;;7.40;4.78;;;21.40;28.00;;;;;;5008148;28;20046;-86
2021/03/23 15:31:21;;;;;;;4.97;4.47;;;20.90;28.70;;;;;;5005903;28;20030;-86
2021/03/23 15:33:47;;;;;;;5.30;4.50;;;20.30;29.30;;;;;;5005256;28;20098;-86
2021/03/23 15:36:15;;;;;;;5.53;4.78;;;19.90;29.60;;;;;;5006473;28;20066;-86
2021/03/23 15:38:40;;;;;;;6.10;4.25;;;19.50;30.20;;;;;;5005375;28;20126;-86
2021/03/23 15:41:07;;;;;;;6.38;4.65;;;18.90;30.50;;;;;;5005726;28;20066;-87
2021/03/23 15:43:33;;;;;;;6.40;4.57;;;18.60;31.60;;;;;;5004216;28;20058;-86
2021/03/23 15:45:58;;;;;;;5.20;4.70;;;18.20;31.80;;;;;;5003106;28;20063;-87
2021/03/23 15:48:24;;;;;;;4.50;4.03;;;17.90;32.30;;;;;;5006517;28;20081;-86
2021/03/23 15:50:54;;;;;;;6.25;4.30;;;17.60;32.40;;;;;;5005770;28;20089;-86
2021/03/23 15:53:38;;;;;;;8.05;4.65;;;17.20;33.30;;;;;;4993258;28;20101;-87
2021/03/23 15:56:06;;;;;;;8.45;4.90;;;16.60;35.20;;;;;;5003482;28;20042;-87
2021/03/23 15:58:32;;;;;;;7.20;4.65;;;16.30;35.50;;;;;;5005528;28;20628;-86
2021/03/23 16:00:57;;;;;;;6.60;4.75;;;16.10;35.70;;;;;;5005012;28;20122;-87
2021/03/23 16:03:25;;;;;;;8.80;5.03;;;15.70;37.30;;;;;;5004323;28;20061;-86
2021/03/23 16:05:51;;;;;;;5.75;4.90;;;15.40;37.50;;;;;;4987317;28;20054;-87
2021/03/23 16:08:28;;;;;;;10.13;5.28;;;15.10;38.30;;;;;;4995962;28;20085;-86
2021/03/23 16:10:54;;;;;;;8.68;4.72;;;14.90;38.60;;;;;;5004667;28;20047;-86
2021/03/23 16:13:19;;;;;;;6.55;4.88;;;14.70;38.50;;;;;;5006335;28;20051;-86
2021/03/23 16:15:45;;;;;;;6.18;4.47;;;14.60;38.20;;;;;;5005575;28;20492;-86
2021/03/23 16:18:14;;;;;;;6.38;4.70;;;14.60;38.40;;;;;;5005353;28;20093;-86
2021/03/23 16:20:41;;;;;;;7.50;5.03;;;14.40;39.30;;;;;;5005527;28;20035;-86
2021/03/23 16:23:22;;;;;;;8.60;5.05;;;14.20;39.60;;;;;;4988675;28;20055;-86
2021/03/23 16:25:48;;;;;;;;;;;14.00;39.80;;;;;;5003525;28;20053;-86
2021/03/23 16:28:21;;;;;;;7.57;5.22;;;13.80;40.90;;;;;;5005988;28;19918;-86
2021/03/23 16:30:47;;;;;;;9.25;4.65;;;13.60;40.90;;;;;;5005611;28;20731;-86
2021/03/23 16:33:12;;;;;;;6.57;5.00;;;13.40;40.40;;;;;;4999546;28;20039;-86
2021/03/23 16:35:39;;;;;;;7.30;4.35;;;13.30;40.90;;;;;;5004260;28;20102;-86
2021/03/23 16:38:05;;;;;;;9.55;5.10;;;13.20;41.10;;;;;;5009248;28;20515;-86
2021/03/23 16:40:32;;;;;;;7.43;4.60;;;13.10;41.70;;;;;;5009049;28;20194;-86
2021/03/23 16:43:01;;;;;;;7.40;4.90;;;13.00;41.90;;;;;;5009817;28;20093;-86
2021/03/23 16:45:30;;;;;;;8.57;4.85;;;12.80;42.10;;;;;;5009032;28;20064;-86
2021/03/23 16:47:56;;;;;;;8.35;6.15;;;12.70;42.40;;;;;;5008578;28;20100;-86
2021/03/23 16:50:25;;;;;;;8.27;5.53;;;12.60;43.10;;;;;;5008219;28;20049;-85
2021/03/23 16:52:51;;;;;;;7.72;5.13;;;12.50;43.20;;;;;;5010569;28;21348;-85
2021/03/23 16:55:27;;;;;;;5.97;5.18;;;12.40;43.60;;;;;;5009936;28;20046;-85
2021/03/23 16:57:53;;;;;;;8.20;4.97;;;12.30;45.20;;;;;;5010217;28;20098;-85
2021/03/23 17:00:21;;;;;;;6.45;4.32;;;12.10;44.70;;;;;;4999499;28;20038;-85
2021/03/23 17:02:47;;;;;;;11.52;5.80;;;12.00;45.70;;;;;;5008118;28;20090;-85